Time;durP1;ratioP1;P1;durP2;ratioP2;P2;SDS_P1;SDS_P2;PMS_P1;PMS_P2;Temp;Humidity;BMP_temperature;BMP_pressure;BME280_temperature;BME280_humidity;BME280_pressure;Samples;Min_cycle;Max_cycle;Signal;HPM_P1;HPM_P2
2023/04/20 00:00:42;;;;;;;;;;;;;;;9.15;100.00;97920.84;5027146;28;19929;-81
2023/04/20 00:03:08;;;;;;;;;;;;;;;9.16;100.00;97909.13;5014282;28;19964;-80
2023/04/20 00:05:34;;;;;;;;;;;;;;;9.07;100.00;97905.31;4995908;28;20412;-79
2023/04/20 00:08:01;;;;;;;;;;;;;;;8.99;100.00;97897.78;4999256;28;20048;-79
2023/04/20 00:10:28;;;;;;;;;;;;;;;8.68;100.00;97897.50;5009725;28;19925;-84
2023/04/20 00:12:55;;;;;;;;;;;;;;;8.70;100.00;97894.56;5016884;28;19947;-80
2023/04/20 00:15:21;;;;;;;;;;;;;;;8.75;100.00;97883.19;5012829;28;19925;-80
2023/04/20 00:17:48;;;;;;;;;;;;;;;8.82;100.00;97883.81;5006228;28;19931;-80
2023/04/20 00:20:15;;;;;;;;;;;;;;;8.90;100.00;97884.13;5013708;28;19928;-80
2023/04/20 00:22:41;;;;;;;;;;;;;;;8.93;100.00;97878.31;5015607;28;19925;-80
2023/04/20 00:25:08;;;;;;;;;;;;;;;8.90;100.00;97884.13;5016941;28;19940;-79
2023/04/20 00:27:36;;;;;;;;;;;;;;;8.86;100.00;97882.22;5019633;28;20390;-80
2023/04/20 00:30:02;;;;;;;;;;;;;;;8.78;100.00;97872.84;5020608;28;19929;-79
2023/04/20 00:32:29;;;;;;;;;;;;;;;8.64;100.00;97864.44;5020211;28;19929;-80
2023/04/20 00:34:55;;;;;;;;;;;;;;;8.70;100.00;97867.19;5021902;28;19929;-80
2023/04/20 00:37:24;;;;;;;;;;;;;;;8.42;100.00;97860.22;5022703;28;20011;-80
2023/04/20 00:39:50;;;;;;;;;;;;;;;8.43;100.00;97867.16;5012346;28;19960;-80
2023/04/20 00:42:17;;;;;;;;;;;;;;;8.34;100.00;97856.16;5018126;28;19935;-79
2023/04/20 00:44:44;;;;;;;;;;;;;;;8.31;100.00;97859.31;5026704;28;19936;-81
2023/04/20 00:47:11;;;;;;;;;;;;;;;8.41;100.00;97853.31;5016039;28;19924;-80
2023/04/20 00:49:37;;;;;;;;;;;;;;;8.44;100.00;97853.59;5018207;28;19995;-81
2023/04/20 00:52:04;;;;;;;;;;;;;;;8.58;100.00;97854.00;5020839;28;19925;-80
2023/04/20 00:54:31;;;;;;;;;;;;;;;8.66;100.00;97851.69;5013679;28;20448;-81
2023/04/20 00:56:58;;;;;;;;;;;;;;;8.76;100.00;97850.97;5018696;28;20636;-81
2023/04/20 00:59:24;;;;;;;;;;;;;;;8.79;100.00;97847.03;5009029;28;20471;-80
2023/04/20 01:01:52;;;;;;;;;;;;;;;8.81;100.00;97847.56;5010816;28;19926;-80
2023/04/20 01:04:18;;;;;;;;;;;;;;;8.82;100.00;97841.19;5004301;28;19926;-80
2023/04/20 01:06:45;;;;;;;;;;;;;;;8.83;100.00;97835.59;5022875;28;19941;-79
2023/04/20 01:09:11;;;;;;;;;;;;;;;8.80;100.00;97835.31;5014477;28;20020;-81
2023/04/20 01:11:38;;;;;;;;;;;;;;;8.80;100.00;97841.44;5019858;28;20418;-79
2023/04/20 01:14:04;;;;;;;;;;;;;;;8.82;100.00;97841.19;5016598;28;20187;-78
2023/04/20 01:16:31;;;;;;;;;;;;;;;8.83;100.00;97840.13;5013296;28;19933;-79
2023/04/20 01:18:59;;;;;;;;;;;;;;;8.86;100.00;97834.28;5018906;28;19936;-81
2023/04/20 01:21:25;;;;;;;;;;;;;;;8.71;100.00;97829.63;5002047;28;20296;-80
2023/04/20 01:23:53;;;;;;;;;;;;;;;8.56;100.00;97824.19;5015852;28;20043;-79
2023/04/20 01:26:21;;;;;;;;;;;;;;;8.58;100.00;97817.53;4998269;28;19931;-80
2023/04/20 01:28:47;;;;;;;;;;;;;;;8.59;100.00;97829.81;5005121;28;19965;-80
2023/04/20 01:31:13;;;;;;;;;;;;;;;8.57;100.00;97837.22;5004076;28;19968;-80
2023/04/20 01:33:40;;;;;;;;;;;;;;;8.50;100.00;97820.66;5006138;28;19929;-78
2023/04/20 01:36:07;;;;;;;;;;;;;;;8.44;100.00;97816.34;5011276;28;19928;-79
2023/04/20 01:38:33;;;;;;;;;;;;;;;8.38;100.00;97822.69;5016591;28;19931;-79
2023/04/20 01:41:01;;;;;;;;;;;;;;;8.36;100.00;97824.75;5004648;28;19935;-79
2023/04/20 01:43:28;;;;;;;;;;;;;;;8.44;100.00;97818.22;5001775;28;20088;-79
2023/04/20 01:45:54;;;;;;;;;;;;;;;8.39;100.00;97810.16;4996834;28;19936;-80
2023/04/20 01:48:20;;;;;;;;;;;;;;;8.31;100.00;97819.41;4997869;28;19925;-79
2023/04/20 01:50:50;;;;;;;;;;;;;;;8.15;100.00;97806.97;5004761;28;20005;-79
2023/04/20 01:53:16;;;;;;;;;;;;;;;8.15;100.00;97807.75;5008495;28;20602;-79
2023/04/20 01:55:42;;;;;;;;;;;;;;;8.11;100.00;97808.50;5003666;28;19929;-80
2023/04/20 01:58:10;;;;;;;;;;;;;;;8.03;100.00;97811.59;5000329;28;19943;-79
2023/04/20 02:00:37;;;;;;;;;;;;;;;7.69;100.00;97807.47;5005623;28;20040;-79
2023/04/20 02:03:03;;;;;;;;;;;;;;;7.57;100.00;97803.09;5014886;28;19957;-80
2023/04/20 02:05:29;;;;;;;;;;;;;;;7.75;100.00;97806.47;5015729;28;20316;-79
2023/04/20 02:07:56;;;;;;;;;;;;;;;7.86;100.00;97806.34;5020693;28;19960;-80
2023/04/20 02:10:22;;;;;;;;;;;;;;;7.72;100.00;97797.16;5011262;28;19928;-80
2023/04/20 02:12:49;;;;;;;;;;;;;;;7.37;100.00;97799.34;5007484;28;19925;-81
2023/04/20 02:15:17;;;;;;;;;;;;;;;7.41;100.00;97795.16;5018852;28;19933;-80
2023/04/20 02:17:44;;;;;;;;;;;;;;;7.72;100.00;97799.81;5024715;28;20027;-80
2023/04/20 02:20:11;;;;;;;;;;;;;;;7.65;100.00;97801.84;5013957;28;20097;-79
2023/04/20 02:22:38;;;;;;;;;;;;;;;7.92;100.00;97799.25;5008824;28;19934;-78
2023/04/20 02:25:05;;;;;;;;;;;;;;;8.02;100.00;97794.84;5029619;28;20019;-79
2023/04/20 02:27:31;;;;;;;;;;;;;;;8.16;100.00;97795.28;5018242;28;20007;-80
2023/04/20 02:29:58;;;;;;;;;;;;;;;8.05;100.00;97801.50;5006275;28;19932;-79
2023/04/20 02:32:26;;;;;;;;;;;;;;;8.15;100.00;97796.31;5014674;28;19930;-79
2023/04/20 02:34:52;;;;;;;;;;;;;;;8.27;100.00;97794.31;5019158;28;20028;-80
2023/04/20 02:37:18;;;;;;;;;;;;;;;8.00;100.00;97793.50;5019188;28;20381;-80
2023/04/20 02:39:45;;;;;;;;;;;;;;;7.61;100.00;97796.22;5001024;28;20268;-78
2023/04/20 02:42:11;;;;;;;;;;;;;;;7.51;100.00;97793.44;5009338;28;20028;-79
2023/04/20 02:44:37;;;;;;;;;;;;;;;7.35;100.00;97791.63;5011034;28;20678;-79
2023/04/20 02:47:04;;;;;;;;;;;;;;;7.67;100.00;97794.44;5019466;28;20476;-79
2023/04/20 02:49:32;;;;;;;;;;;;;;;7.61;100.00;97790.88;5015177;28;20007;-79
2023/04/20 02:51:58;;;;;;;;;;;;;;;7.71;100.00;97787.56;5007733;28;20012;-80
2023/04/20 02:54:24;;;;;;;;;;;;;;;7.33;100.00;97782.28;5008869;28;20012;-81
2023/04/20 02:56:51;;;;;;;;;;;;;;;7.37;100.00;97772.75;5032448;28;19925;-80
2023/04/20 02:59:17;;;;;;;;;;;;;;;7.27;100.00;97778.75;5009598;28;20024;-79
2023/04/20 03:01:43;;;;;;;;;;;;;;;7.26;100.00;97787.78;5002580;28;20509;-79
2023/04/20 03:04:10;;;;;;;;;;;;;;;7.27;100.00;97792.03;4994378;28;19925;-79
2023/04/20 03:06:39;;;;;;;;;;;;;;;7.34;100.00;97786.53;5013556;28;19930;-79
2023/04/20 03:09:06;;;;;;;;;;;;;;;7.12;100.00;97780.41;5024522;28;19987;-81
2023/04/20 03:11:32;;;;;;;;;;;;;;;6.92;100.00;97794.19;5016982;28;21004;-79
2023/04/20 03:13:59;;;;;;;;;;;;;;;6.85;100.00;97785.56;5000715;28;20377;-80
2023/04/20 03:16:25;;;;;;;;;;;;;;;6.84;100.00;97784.75;4995303;28;19929;-81
2023/04/20 03:18:51;;;;;;;;;;;;;;;7.08;100.00;97790.72;5005473;28;19929;-81
2023/04/20 03:21:18;;;;;;;;;;;;;;;6.96;100.00;97785.47;5003137;28;19925;-79
2023/04/20 03:23:46;;;;;;;;;;;;;;;7.15;100.00;97783.34;5004081;28;19933;-80
2023/04/20 03:26:12;;;;;;;;;;;;;;;7.12;100.00;97783.06;5007762;28;19951;-79
2023/04/20 03:28:39;;;;;;;;;;;;;;;7.15;100.00;97786.00;5013194;28;19929;-81
2023/04/20 03:31:05;;;;;;;;;;;;;;;7.00;100.00;97780.47;5015030;28;19933;-80
2023/04/20 03:33:32;;;;;;;;;;;;;;;6.89;100.00;97786.69;5015109;28;20649;-80
2023/04/20 03:35:58;;;;;;;;;;;;;;;6.76;100.00;97787.00;5012545;28;19932;-80
2023/04/20 03:38:25;;;;;;;;;;;;;;;6.75;100.00;97790.69;5011779;28;20570;-81
2023/04/20 03:40:52;;;;;;;;;;;;;;;6.86;100.00;97784.53;5015489;28;20025;-80
2023/04/20 03:43:19;;;;;;;;;;;;;;;7.03;100.00;97783.47;5023469;28;19937;-81
2023/04/20 03:45:45;;;;;;;;;;;;;;;7.45;100.00;97781.13;5021293;28;19936;-79
2023/04/20 03:48:12;;;;;;;;;;;;;;;7.04;100.00;97771.00;5013924;28;20345;-81
2023/04/20 03:50:38;;;;;;;;;;;;;;;7.00;100.00;97780.47;5005681;28;20407;-79
2023/04/20 03:53:04;;;;;;;;;;;;;;;7.12;100.00;97780.41;5006301;28;19932;-78
2023/04/20 03:55:31;;;;;;;;;;;;;;;7.14;100.00;97778.31;5014880;28;20425;-79
2023/04/20 03:57:58;;;;;;;;;;;;;;;6.89;100.00;97776.88;5020133;28;19929;-80
2023/04/20 04:00:25;;;;;;;;;;;;;;;7.22;100.00;97785.84;5014580;28;20022;-80
2023/04/20 04:02:51;;;;;;;;;;;;;;;7.31;100.00;97777.22;5019326;28;20120;-80
2023/04/20 04:05:17;;;;;;;;;;;;;;;7.40;100.00;97766.97;5012101;28;20324;-79
2023/04/20 04:07:44;;;;;;;;;;;;;;;7.34;100.00;97774.06;5000722;28;19929;-81
2023/04/20 04:10:10;;;;;;;;;;;;;;;7.50;100.00;97772.41;5010686;28;19929;-80
2023/04/20 04:12:37;;;;;;;;;;;;;;;7.58;100.00;97783.41;5007885;28;19930;-80
2023/04/20 04:15:05;;;;;;;;;;;;;;;7.57;100.00;97781.81;5022132;28;20065;-79
2023/04/20 04:17:31;;;;;;;;;;;;;;;7.51;100.00;97772.19;5019852;28;19935;-78
2023/04/20 04:19:57;;;;;;;;;;;;;;;7.66;100.00;97781.38;5019664;28;19931;-80
2023/04/20 04:22:24;;;;;;;;;;;;;;;7.47;100.00;97779.03;5012107;28;19929;-80
2023/04/20 04:24:50;;;;;;;;;;;;;;;7.24;100.00;97770.50;5011420;28;20008;-79
2023/04/20 04:27:17;;;;;;;;;;;;;;;7.11;100.00;97778.78;5014195;28;20003;-79
2023/04/20 04:29:44;;;;;;;;;;;;;;;6.89;100.00;97774.22;5001771;28;19930;-80
2023/04/20 04:32:12;;;;;;;;;;;;;;;7.19;100.00;97773.88;5001192;28;20082;-80
2023/04/20 04:34:39;;;;;;;;;;;;;;;7.17;100.00;97781.28;5015539;28;20012;-79
2023/04/20 04:37:05;;;;;;;;;;;;;;;7.07;100.00;97770.50;5020472;28;19929;-80
2023/04/20 04:39:31;;;;;;;;;;;;;;;7.09;100.00;97768.41;5017930;28;20893;-81
2023/04/20 04:41:58;;;;;;;;;;;;;;;7.29;100.00;97775.84;4997474;28;19925;-80
2023/04/20 04:44:27;;;;;;;;;;;;;;;7.06;100.00;97782.16;5022079;28;20005;-80
2023/04/20 04:46:54;;;;;;;;;;;;;;;7.29;100.00;97786.47;4996394;28;19925;-80
2023/04/20 04:49:23;;;;;;;;;;;;;;;7.45;100.00;97783.81;5011892;28;19968;-80
2023/04/20 04:51:49;;;;;;;;;;;;;;;7.48;100.00;97785.16;5000795;28;19971;-80
2023/04/20 04:54:16;;;;;;;;;;;;;;;7.27;100.00;97778.75;5010630;28;19933;-80
2023/04/20 04:56:42;;;;;;;;;;;;;;;7.10;100.00;97772.66;5022276;28;19937;-80
2023/04/20 04:59:08;;;;;;;;;;;;;;;6.97;100.00;97773.00;5020712;28;20009;-80
2023/04/20 05:01:35;;;;;;;;;;;;;;;7.09;100.00;97775.59;5010606;28;19932;-80
2023/04/20 05:04:01;;;;;;;;;;;;;;;7.41;100.00;97781.88;5019390;28;19928;-80
2023/04/20 05:06:29;;;;;;;;;;;;;;;7.60;100.00;97780.53;5015574;28;20380;-79
2023/04/20 05:08:55;;;;;;;;;;;;;;;7.50;100.00;97773.22;5010535;28;20485;-79
2023/04/20 05:11:22;;;;;;;;;;;;;;;7.50;100.00;97773.22;5017614;28;19996;-80
2023/04/20 05:13:48;;;;;;;;;;;;;;;7.57;100.00;97773.84;5020723;28;19931;-79
2023/04/20 05:16:15;;;;;;;;;;;;;;;7.63;100.00;97776.56;5021014;28;19925;-80
2023/04/20 05:18:41;;;;;;;;;;;;;;;7.75;100.00;97775.38;5006415;28;20032;-79
2023/04/20 05:21:07;;;;;;;;;;;;;;;7.80;100.00;97788.72;5006684;28;20439;-80
2023/04/20 05:23:35;;;;;;;;;;;;;;;7.85;100.00;97785.34;5016405;28;19931;-80
2023/04/20 05:26:01;;;;;;;;;;;;;;;7.85;100.00;97772.06;5014992;28;20023;-79
2023/04/20 05:28:28;;;;;;;;;;;;;;;7.67;100.00;97780.34;5011024;28;20015;-79
2023/04/20 05:30:54;;;;;;;;;;;;;;;7.66;100.00;97771.56;5015695;28;20025;-80
2023/04/20 05:33:20;;;;;;;;;;;;;;;7.74;100.00;97778.28;5019572;28;20368;-79
2023/04/20 05:35:47;;;;;;;;;;;;;;;7.76;100.00;97776.19;5013148;28;19929;-80
2023/04/20 05:38:14;;;;;;;;;;;;;;;7.93;100.00;97782.25;5013474;28;19925;-79
2023/04/20 05:40:42;;;;;;;;;;;;;;;7.81;100.00;97779.72;5016257;28;19925;-80
2023/04/20 05:43:08;;;;;;;;;;;;;;;7.54;100.00;97774.34;5008021;28;20320;-80
2023/04/20 05:45:34;;;;;;;;;;;;;;;7.68;100.00;97779.28;5020445;28;20054;-80
2023/04/20 05:48:01;;;;;;;;;;;;;;;7.95;100.00;97786.25;4999896;28;19926;-79
2023/04/20 05:50:27;;;;;;;;;;;;;;;8.01;100.00;97779.97;5013191;28;19961;-80
2023/04/20 05:52:53;;;;;;;;;;;;;;;7.85;100.00;97780.03;5003642;28;19929;-80
2023/04/20 05:55:20;;;;;;;;;;;;;;;7.53;100.00;97787.88;4993638;28;19934;-79
2023/04/20 05:57:48;;;;;;;;;;;;;;;7.25;100.00;97786.16;4996682;28;19925;-80
2023/04/20 06:00:15;;;;;;;;;;;;;;;7.25;100.00;97788.00;5000884;28;19925;-80
2023/04/20 06:02:42;;;;;;;;;;;;;;;7.32;100.00;97786.81;5010661;28;19939;-79
2023/04/20 06:05:09;;;;;;;;;;;;;;;7.43;100.00;97793.03;5004857;28;19925;-80
2023/04/20 06:07:35;;;;;;;;;;;;;;;7.48;100.00;97795.78;5001054;28;20089;-81
2023/04/20 06:10:03;;;;;;;;;;;;;;;7.28;100.00;97785.69;4996299;28;20541;-80
2023/04/20 06:12:29;;;;;;;;;;;;;;;7.41;100.00;97785.31;4999329;28;20379;-81
2023/04/20 06:14:57;;;;;;;;;;;;;;;7.45;100.00;97788.31;5008155;28;19932;-80
2023/04/20 06:17:24;;;;;;;;;;;;;;;7.77;100.00;97788.44;5010400;28;20420;-80
2023/04/20 06:19:50;;;;;;;;;;;;;;;7.94;100.00;97789.97;5015070;28;19925;-80
2023/04/20 06:22:17;;;;;;;;;;;;;;;8.05;100.00;97785.56;5012461;28;19931;-80
2023/04/20 06:24:43;;;;;;;;;;;;;;;7.88;100.00;97790.16;5016984;28;20730;-81
2023/04/20 06:27:10;;;;;;;;;;;;;;;7.92;100.00;97799.25;5017836;28;19955;-79
2023/04/20 06:29:36;;;;;;;;;;;;;;;7.54;100.00;97790.28;5014640;28;19975;-81
2023/04/20 06:32:05;;;;;;;;;;;;;;;7.35;100.00;97786.31;5013769;28;19929;-80
2023/04/20 06:34:31;;;;;;;;;;;;;;;7.54;100.00;97784.97;5025284;28;19925;-81
2023/04/20 06:36:57;;;;;;;;;;;;;;;7.45;100.00;97786.47;5019396;28;19925;-80
2023/04/20 06:39:24;;;;;;;;;;;;;;;7.70;100.00;97783.31;5016177;28;20576;-80
2023/04/20 06:41:50;;;;;;;;;;;;;;;7.44;100.00;97779.53;5020514;28;20012;-80
2023/04/20 06:44:16;;;;;;;;;;;;;;;7.36;100.00;97782.63;5018451;28;20015;-79
2023/04/20 06:46:43;;;;;;;;;;;;;;;7.46;100.00;97788.03;5021157;28;19939;-80
2023/04/20 06:49:10;;;;;;;;;;;;;;;7.43;100.00;97782.41;5016718;28;19936;-80
2023/04/20 06:51:37;;;;;;;;;;;;;;;7.58;100.00;97786.06;5011513;28;20399;-81
2023/04/20 06:54:03;;;;;;;;;;;;;;;7.54;100.00;97776.19;5014120;28;19936;-80
2023/04/20 06:56:29;;;;;;;;;;;;;;;7.84;100.00;97784.53;5015954;28;20415;-80
2023/04/20 06:58:56;;;;;;;;;;;;;;;8.26;100.00;97775.97;5004437;28;19976;-80
2023/04/20 07:01:22;;;;;;;;;;;;;;;8.29;100.00;97781.63;5029678;28;20020;-80
2023/04/20 07:03:49;;;;;;;;;;;;;;;8.32;100.00;97781.13;5007695;28;20020;-80
2023/04/20 07:06:16;;;;;;;;;;;;;;;7.90;100.00;97777.41;5018436;28;19990;-79
2023/04/20 07:08:43;;;;;;;;;;;;;;;7.84;100.00;97776.56;5018560;28;20044;-80
2023/04/20 07:11:09;;;;;;;;;;;;;;;7.94;100.00;97783.84;5013534;28;19936;-80
2023/04/20 07:13:35;;;;;;;;;;;;;;;7.84;100.00;97778.41;5016928;28;20026;-80
2023/04/20 07:16:02;;;;;;;;;;;;;;;7.79;100.00;97781.03;5005261;28;19929;-81
2023/04/20 07:18:28;;;;;;;;;;;;;;;8.15;100.00;97775.03;5011233;28;19935;-80
2023/04/20 07:20:54;;;;;;;;;;;;;;;8.34;100.00;97768.34;5008475;28;20361;-80
2023/04/20 07:23:22;;;;;;;;;;;;;;;8.09;100.00;97768.06;4997661;28;19925;-79
2023/04/20 07:25:49;;;;;;;;;;;;;;;8.00;100.00;97767.72;4989414;28;20687;-80
2023/04/20 07:28:15;;;;;;;;;;;;;;;7.88;100.00;97768.91;5002086;28;19959;-81
2023/04/20 07:30:41;;;;;;;;;;;;;;;7.96;100.00;97776.41;5018469;28;20024;-80
2023/04/20 07:33:09;;;;;;;;;;;;;;;8.07;100.00;97767.53;5008890;28;19972;-80
2023/04/20 07:35:36;;;;;;;;;;;;;;;8.19;100.00;97764.69;5007456;28;19929;-82
2023/04/20 07:38:03;;;;;;;;;;;;;;;8.36;100.00;97768.88;4998630;28;20054;-81
2023/04/20 07:40:30;;;;;;;;;;;;;;;8.18;100.00;97757.78;5011015;28;19929;-80
2023/04/20 07:42:57;;;;;;;;;;;;;;;8.15;100.00;97759.06;5013539;28;19936;-80
2023/04/20 07:45:23;;;;;;;;;;;;;;;8.00;100.00;97756.25;5017340;28;20380;-80
2023/04/20 07:47:50;;;;;;;;;;;;;;;8.10;100.00;97762.50;5016819;28;20127;-80
2023/04/20 07:50:17;;;;;;;;;;;;;;;7.90;100.00;97756.16;5019689;28;20401;-82
2023/04/20 07:52:43;;;;;;;;;;;;;;;7.87;100.00;97759.31;5016214;28;19951;-82
2023/04/20 07:55:12;;;;;;;;;;;;;;;7.87;100.00;97760.13;5016715;28;19925;-80
2023/04/20 07:57:41;;;;;;;;;;;;;;;7.65;100.00;97761.16;5001573;28;19929;-80
2023/04/20 08:00:08;;;;;;;;;;;;;;;7.66;100.00;97766.25;5026925;28;20577;-82
2023/04/20 08:02:35;;;;;;;;;;;;;;;7.71;100.00;97768.16;5020544;28;19968;-81
2023/04/20 08:05:01;;;;;;;;;;;;;;;7.60;100.00;97765.38;5026517;28;19956;-81
2023/04/20 08:07:27;;;;;;;;;;;;;;;7.70;100.00;97755.94;5025768;28;19936;-81
2023/04/20 08:09:55;;;;;;;;;;;;;;;7.69;100.00;97757.78;5022080;28;20007;-80
2023/04/20 08:12:22;;;;;;;;;;;;;;;7.74;100.00;97762.34;5018397;28;20024;-80
2023/04/20 08:14:49;;;;;;;;;;;;;;;7.56;100.00;97755.50;5006146;28;19934;-80
2023/04/20 08:17:16;;;;;;;;;;;;;;;7.50;100.00;97762.59;5015949;28;20339;-81
2023/04/20 08:19:42;;;;;;;;;;;;;;;7.42;100.00;97760.38;5016165;28;20484;-80
2023/04/20 08:22:11;;;;;;;;;;;;;;;7.57;100.00;97767.72;5020791;28;19929;-81
2023/04/20 08:24:37;;;;;;;;;;;;;;;7.61;100.00;97768.84;5023525;28;19929;-81
2023/04/20 08:27:03;;;;;;;;;;;;;;;7.54;100.00;97760.25;5019866;28;19929;-80
2023/04/20 08:29:30;;;;;;;;;;;;;;;7.39;100.00;97752.91;5025198;28;20346;-80
2023/04/20 08:31:57;;;;;;;;;;;;;;;7.36;100.00;97753.41;5012836;28;19932;-80
2023/04/20 08:34:24;;;;;;;;;;;;;;;7.29;100.00;97752.75;5024934;28;19925;-80
2023/04/20 08:36:50;;;;;;;;;;;;;;;7.10;100.00;97746.13;5018393;28;20020;-80
2023/04/20 08:39:18;;;;;;;;;;;;;;;7.38;100.00;97751.28;5013387;28;19925;-80
2023/04/20 08:41:45;;;;;;;;;;;;;;;7.50;100.00;97751.16;5020629;28;19933;-80
2023/04/20 08:44:12;;;;;;;;;;;;;;;7.57;100.00;97749.94;5003004;28;19984;-81
2023/04/20 08:46:41;;;;;;;;;;;;;;;7.79;100.00;97743.81;5005511;28;19929;-81
2023/04/20 08:49:11;;;;;;;;;;;;;;;7.86;100.00;97739.88;5007686;28;19935;-80
2023/04/20 08:51:39;;;;;;;;;;;;;;;7.70;100.00;97738.13;5015295;28;19925;-80
2023/04/20 08:54:06;;;;;;;;;;;;;;;7.66;100.00;97738.88;5018713;28;19936;-80
2023/04/20 08:56:35;;;;;;;;;;;;;;;7.56;100.00;97735.03;5022158;28;20047;-80
2023/04/20 08:59:04;;;;;;;;;;;;;;;7.66;100.00;97738.88;5000616;28;19925;-79
2023/04/20 09:01:30;;;;;;;;;;;;;;;7.56;100.00;97737.69;5005254;28;19929;-80
2023/04/20 09:03:57;;;;;;;;;;;;;;;7.55;100.00;97733.41;5002303;28;19929;-80
2023/04/20 09:06:25;;;;;;;;;;;;;;;7.72;100.00;97733.34;5026067;28;20564;-79
2023/04/20 09:08:51;;;;;;;;;;;;;;;7.78;100.00;97736.88;4998740;28;19936;-80
2023/04/20 09:11:22;;;;;;;;;;;;;;;7.78;100.00;97748.31;5027837;28;20024;-79
2023/04/20 09:13:57;;;;;;;;;;;;;;;7.77;100.00;97746.69;5001315;28;20007;-80
2023/04/20 09:16:23;;;;;;;;;;;;;;;7.69;100.00;97747.16;5019575;28;19932;-79
2023/04/20 09:18:52;;;;;;;;;;;;;;;7.70;100.00;97740.78;5014921;28;19929;-80
2023/04/20 09:21:18;;;;;;;;;;;;;;;7.65;100.00;97745.22;5006530;28;19929;-79
2023/04/20 09:23:55;;;;;;;;;;;;;;;7.66;100.00;97744.19;5009455;28;20546;-79
2023/04/20 09:26:21;;;;;;;;;;;;;;;7.50;100.00;97743.19;5020516;28;19983;-78
2023/04/20 09:28:48;;;;;;;;;;;;;;;7.55;100.00;97738.72;5026934;28;19935;-78
2023/04/20 09:31:17;;;;;;;;;;;;;;;7.53;100.00;97740.84;5020127;28;19932;-79
2023/04/20 09:33:43;;;;;;;;;;;;;;;7.58;100.00;97732.91;5022172;28;19929;-80
2023/04/20 09:36:10;;;;;;;;;;;;;;;7.68;100.00;97737.56;5010619;28;19933;-79
2023/04/20 09:38:37;;;;;;;;;;;;;;;7.85;100.00;97740.16;5020244;28;19933;-80
2023/04/20 09:41:05;;;;;;;;;;;;;;;7.95;100.00;97737.59;5013100;28;20172;-79
2023/04/20 09:43:33;;;;;;;;;;;;;;;8.06;100.00;97731.31;5018323;28;19928;-80
2023/04/20 09:45:59;;;;;;;;;;;;;;;8.00;100.00;97727.00;5013566;28;20312;-80
2023/04/20 09:48:28;;;;;;;;;;;;;;;7.95;100.00;97722.44;5016011;28;20351;-80
2023/04/20 09:50:55;;;;;;;;;;;;;;;7.97;100.00;97714.22;5021273;28;20074;-80
2023/04/20 09:53:21;;;;;;;;;;;;;;;7.95;100.00;97719.78;5008822;28;20042;-81
2023/04/20 09:55:48;;;;;;;;;;;;;;;7.82;100.00;97716.72;5019147;28;19925;-81
2023/04/20 09:58:17;;;;;;;;;;;;;;;7.93;100.00;97719.22;5017953;28;20507;-80
2023/04/20 10:00:43;;;;;;;;;;;;;;;8.30;100.00;97721.19;5006023;28;19929;-79
2023/04/20 10:03:11;;;;;;;;;;;;;;;8.32;100.00;97719.91;5015095;28;19933;-79
2023/04/20 10:05:38;;;;;;;;;;;;;;;8.31;100.00;97730.78;5015657;28;20015;-79
2023/04/20 10:08:05;;;;;;;;;;;;;;;8.22;100.00;97734.94;5012018;28;19929;-79
2023/04/20 10:10:42;;;;;;;;;;;;;;;8.39;100.00;97727.66;4998422;28;19925;-79
2023/04/20 10:13:08;;;;;;;;;;;;;;;8.45;100.00;97724.78;5000899;28;19935;-79
2023/04/20 10:15:40;;;;;;;;;;;;;;;8.35;100.00;97716.75;5002374;28;19929;-79
2023/04/20 10:18:15;;;;;;;;;;;;;;;8.31;100.00;97718.31;5008985;28;19983;-80
2023/04/20 10:20:41;;;;;;;;;;;;;;;8.29;100.00;97720.44;5007961;28;19936;-80
2023/04/20 10:23:10;;;;;;;;;;;;;;;8.30;100.00;97714.03;5009923;28;19925;-78
2023/04/20 10:25:36;;;;;;;;;;;;;;;8.34;100.00;97709.81;5007906;28;19929;-80
2023/04/20 10:28:07;;;;;;;;;;;;;;;8.38;100.00;97699.47;4998196;28;20600;-78
2023/04/20 10:30:34;;;;;;;;;;;;;;;8.36;100.00;97697.06;5007507;28;19925;-79
2023/04/20 10:33:08;;;;;;;;;;;;;;;8.45;100.00;97700.84;5013059;28;19928;-79
2023/04/20 10:35:41;;;;;;;;;;;;;;;8.45;100.00;97692.88;5014506;28;20002;-80
2023/04/20 10:38:09;;;;;;;;;;;;;;;8.58;100.00;97687.13;5011745;28;19937;-80
2023/04/20 10:40:35;;;;;;;;;;;;;;;8.66;100.00;97681.31;5012435;28;19936;-79
2023/04/20 10:43:01;;;;;;;;;;;;;;;8.72;100.00;97684.81;5013090;28;19935;-79
2023/04/20 10:45:34;;;;;;;;;;;;;;;8.76;100.00;97672.59;5011038;28;19929;-79
2023/04/20 10:48:07;;;;;;;;;;;;;;;8.80;100.00;97671.03;5019369;28;20079;-79
2023/04/20 10:50:34;;;;;;;;;;;;;;;8.78;100.00;97664.34;5024656;28;19976;-79
2023/04/20 10:53:00;;;;;;;;;;;;;;;8.89;100.00;97664.16;5012036;28;19925;-79
2023/04/20 10:55:26;;;;;;;;;;;;;;;8.94;100.00;97658.06;5022285;28;20225;-80
2023/04/20 10:57:53;;;;;;;;;;;;;;;8.99;100.00;97653.56;5023152;28;19935;-77
2023/04/20 11:00:20;;;;;;;;;;;;;;;8.98;100.00;97651.94;5014360;28;20425;-78
2023/04/20 11:02:48;;;;;;;;;;;;;;;9.04;100.00;97639.44;5016346;28;19929;-79
2023/04/20 11:05:16;;;;;;;;;;;;;;;9.11;100.00;97640.84;5011302;28;19925;-80
2023/04/20 11:07:52;;;;;;;;;;;;;;;9.20;100.00;97631.28;5009779;28;19965;-80
2023/04/20 11:10:19;;;;;;;;;;;;;;;9.25;100.00;97632.38;5011371;28;19925;-80
2023/04/20 11:12:46;;;;;;;;;;;;;;;9.42;100.00;97628.41;5011225;28;19929;-81
2023/04/20 11:15:12;;;;;;;;;;;;;;;9.48;100.00;97614.03;5015995;28;19929;-81
2023/04/20 11:17:39;;;;;;;;;;;;;;;9.53;100.00;97610.59;5020216;28;19926;-81
2023/04/20 11:20:09;;;;;;;;;;;;;;;9.69;100.00;97614.88;5013946;28;19980;-82
2023/04/20 11:22:38;;;;;;;;;;;;;;;9.82;100.00;97602.91;5016568;28;20031;-81
2023/04/20 11:25:05;;;;;;;;;;;;;;;9.90;100.00;97611.19;5008531;28;19932;-80
2023/04/20 11:27:31;;;;;;;;;;;;;;;9.96;100.00;97604.00;4994969;28;19929;-81
2023/04/20 11:29:58;;;;;;;;;;;;;;;9.95;100.00;97603.19;5002316;28;19932;-82
2023/04/20 11:32:25;;;;;;;;;;;;;;;10.00;100.00;97610.38;5011227;28;19933;-82
2023/04/20 11:34:58;;;;;;;;;;;;;;;10.05;100.00;97597.06;5007131;28;20038;-80
2023/04/20 11:37:24;;;;;;;;;;;;;;;9.89;100.00;97593.59;5010256;28;19929;-81
2023/04/20 11:40:00;;;;;;;;;;;;;;;9.92;100.00;97601.06;5026235;28;19951;-81
2023/04/20 11:42:26;;;;;;;;;;;;;;;10.15;100.00;97603.22;5020110;28;19925;-82
2023/04/20 11:44:53;;;;;;;;;;;;;;;10.24;100.00;97596.28;5018287;28;20178;-81
2023/04/20 11:47:19;;;;;;;;;;;;;;;10.36;100.00;97590.69;5015948;28;19931;-81
2023/04/20 11:49:45;;;;;;;;;;;;;;;10.40;100.00;97583.72;5006059;28;20064;-81
2023/04/20 11:52:12;;;;;;;;;;;;;;;10.10;100.00;97589.84;5006552;28;20008;-81
2023/04/20 11:54:38;;;;;;;;;;;;;;;10.21;100.00;97574.69;5012689;28;20433;-81
2023/04/20 11:57:06;;;;;;;;;;;;;;;10.45;100.00;97574.91;5018123;28;19925;-80
2023/04/20 11:59:33;;;;;;;;;;;;;;;10.60;100.00;97566.84;5021007;28;19935;-81
2023/04/20 12:02:01;;;;;;;;;;;;;;;10.70;100.00;97573.00;5023084;28;20555;-81
2023/04/20 12:04:27;;;;;;;;;;;;;;;10.63;100.00;97561.78;5019363;28;20405;-80
2023/04/20 12:06:54;;;;;;;;;;;;;;;10.66;100.00;97566.56;5022819;28;20540;-81
2023/04/20 12:09:20;;;;;;;;;;;;;;;10.72;100.00;97559.34;5027632;28;19924;-82
2023/04/20 12:11:47;;;;;;;;;;;;;;;10.94;100.00;97559.00;5028188;28;19933;-80
2023/04/20 12:14:14;;;;;;;;;;;;;;;10.87;100.00;97561.97;5024767;28;19925;-80
2023/04/20 12:16:41;;;;;;;;;;;;;;;10.37;100.00;97549.53;5020478;28;20027;-81
2023/04/20 12:19:07;;;;;;;;;;;;;;;10.51;100.00;97545.25;5012523;28;19981;-82
2023/04/20 12:21:34;;;;;;;;;;;;;;;10.71;100.00;97542.50;5019720;28;19925;-81
2023/04/20 12:24:00;;;;;;;;;;;;;;;10.76;100.00;97539.03;5018874;28;19935;-81
2023/04/20 12:26:27;;;;;;;;;;;;;;;10.87;100.00;97531.78;5016635;28;19932;-81
2023/04/20 12:28:53;;;;;;;;;;;;;;;10.75;100.00;97534.75;5002234;28;20170;-81
2023/04/20 12:31:23;;;;;;;;;;;;;;;10.97;100.00;97535.22;5011842;28;20374;-81
2023/04/20 12:33:49;;;;;;;;;;;;;;;10.96;100.00;97532.78;5022439;28;19929;-82
2023/04/20 12:36:16;;;;;;;;;;;;;;;11.03;100.00;97539.47;5006740;28;19964;-80
2023/04/20 12:38:42;;;;;;;;;;;;;;;10.71;100.00;97525.69;5013781;28;20293;-79
2023/04/20 12:41:12;;;;;;;;;;;;;;;11.06;100.00;97527.41;5001920;28;19926;-80
2023/04/20 12:43:39;;;;;;;;;;;;;;;11.32;100.00;97521.69;4986119;28;20169;-80